首页
METAR-TAF:

METAR-TAF

机场 :

牛津, 英格兰

纬度: 51-50-13N, 经度: 1-19-12W, 海拔: 82米

当前天气观测

该预报发布于28分钟前的14:20 UTC
风速15节,风向西转西北,在西西北之间变化
温度 11°C
湿度 62%
气压 1017 hPa
能见度10公里或以上
散云层高于3400英尺

METAR: EGTK 231420Z 29015KT 260V320 9999 SCT034 11/04 Q1017

时间: 14:48 (14:48 UTC)

预报

该预报发布于33分钟前的14:15 UTC
预报有效从23日的 15点(UTC)到 23日的 23点(UTC)
风速16节,风向西,有时为26节阵风
能见度10公里或以上
散云层高于2500英尺
成为
从 23日的 15点(UTC)到 23日的 18点(UTC)
风速10节,风向西
成为
从 23日的 20点(UTC)到 23日的 22点(UTC)
风速4节,风向多变

TAF: EGTK 231415Z 2315/2323 28016G26KT 9999 SCT025 BECMG 2315/2318 28010KT BECMG 2320/2322 VRB04KT

超过4000个机场的气象观测和天气预报(METAR&TAF报告)。

可查询的气象台以黄色和红色小点在地图上表示。

将鼠标移到小点上方,可查看气象台名称。

然后点击查看天气观测和预报。

如需切换地图:点击带黑十字的绿色按钮放大地图;点击带横线的绿色按钮缩小地图;或者点击绿色箭头查看邻近地区的地图。


METAR-TAF: